Time;durP1;ratioP1;P1;durP2;ratioP2;P2;SDS_P1;SDS_P2;PMS_P1;PMS_P2;Temp;Humidity;BMP_temperature;BMP_pressure;BME280_temperature;BME280_humidity;BME280_pressure;Samples;Min_cycle;Max_cycle;Signal;HPM_P1;HPM_P2
2022/06/13 00:00:29;;;;;;;3.17;1.30;;;18.70;77.00;;;;;;5003948;28;20989;-56
2022/06/13 00:02:56;;;;;;;2.97;1.30;;;18.60;77.00;;;;;;5007786;28;20500;-55
2022/06/13 00:05:22;;;;;;;5.60;1.97;;;18.60;77.60;;;;;;5006634;28;21033;-56
2022/06/13 00:07:51;;;;;;;3.60;1.30;;;18.60;77.60;;;;;;5007148;28;20992;-55
2022/06/13 00:10:18;;;;;;;4.53;1.37;;;18.50;76.50;;;;;;5005283;28;20479;-56
2022/06/13 00:12:45;;;;;;;2.93;1.53;;;18.40;77.50;;;;;;5007995;28;20912;-55
2022/06/13 00:15:15;;;;;;;3.37;1.20;;;18.40;78.10;;;;;;5008304;28;20560;-56
2022/06/13 00:17:42;;;;;;;3.27;1.87;;;18.10;78.40;;;;;;5004312;28;20474;-56
2022/06/13 00:20:09;;;;;;;1.90;1.30;;;17.40;80.10;;;;;;5006789;28;20516;-56
2022/06/13 00:22:36;;;;;;;7.20;1.60;;;17.40;80.00;;;;;;5003620;28;20484;-56
2022/06/13 00:25:05;;;;;;;2.20;1.50;;;17.40;80.10;;;;;;5013918;28;20476;-56
2022/06/13 00:27:32;;;;;;;3.37;1.47;;;17.40;79.80;;;;;;5005984;28;21083;-56
2022/06/13 00:29:58;;;;;;;2.27;1.40;;;17.40;80.50;;;;;;5006443;28;20480;-56
2022/06/13 00:32:25;;;;;;;2.80;1.70;;;17.40;80.80;;;;;;5007129;28;20514;-56
2022/06/13 00:34:52;;;;;;;6.73;1.80;;;17.40;80.20;;;;;;5007836;28;20491;-56
2022/06/13 00:37:18;;;;;;;6.40;2.07;;;17.40;81.00;;;;;;5006391;28;20503;-57
2022/06/13 00:39:45;;;;;;;2.87;1.57;;;17.30;80.80;;;;;;5004229;28;20478;-56
2022/06/13 00:42:18;;;;;;;2.97;1.97;;;17.00;81.10;;;;;;5007842;28;20472;-56
2022/06/13 00:45:15;;;;;;;3.23;1.50;;;16.90;81.00;;;;;;5007225;28;20929;-57
2022/06/13 00:47:44;;;;;;;3.83;1.47;;;16.90;81.90;;;;;;5000257;28;20476;-56
2022/06/13 00:50:17;;;;;;;2.70;1.97;;;16.80;82.70;;;;;;5005615;28;20733;-56
2022/06/13 00:52:48;;;;;;;4.00;1.80;;;16.70;82.40;;;;;;5005150;28;21192;-56
2022/06/13 00:55:23;;;;;;;2.73;1.67;;;16.60;82.50;;;;;;5019454;28;20476;-56
2022/06/13 00:57:51;;;;;;;2.53;1.50;;;16.60;81.50;;;;;;5010902;28;20487;-56
2022/06/13 01:00:20;;;;;;;6.00;1.53;;;16.50;82.00;;;;;;5008908;28;21061;-57
2022/06/13 01:02:48;;;;;;;3.90;1.90;;;16.20;82.70;;;;;;5011456;28;21233;-57
2022/06/13 01:05:19;;;;;;;10.53;2.20;;;16.10;82.90;;;;;;5011095;28;20579;-56
2022/06/13 01:07:47;;;;;;;2.67;1.60;;;16.00;83.30;;;;;;5018133;28;20480;-56
2022/06/13 01:13:04;;;;;;;3.50;1.70;;;15.70;84.20;;;;;;5016073;28;20525;-56
2022/06/13 01:16:03;;;;;;;2.50;1.60;;;15.60;84.20;;;;;;5013506;28;20499;-56
2022/06/13 01:18:55;;;;;;;2.27;1.53;;;15.70;83.70;;;;;;5026274;28;20491;-56
2022/06/13 01:21:32;;;;;;;3.00;1.50;;;15.70;83.40;;;;;;5024095;28;20489;-56
2022/06/13 01:24:36;;;;;;;3.20;1.57;;;15.60;83.40;;;;;;5020764;28;21300;-57
2022/06/13 01:27:34;;;;;;;12.27;1.90;;;15.60;83.60;;;;;;5020576;28;20504;-56
2022/06/13 01:30:23;;;;;;;4.00;1.80;;;15.60;84.00;;;;;;5011008;28;20484;-56
2022/06/13 01:32:59;;;;;;;5.03;1.97;;;15.50;84.00;;;;;;5020486;28;21175;-57
2022/06/13 01:35:38;;;;;;;2.40;2.20;;;15.40;84.60;;;;;;5021341;28;20492;-56
2022/06/13 01:38:15;;;;;;;3.50;1.77;;;15.30;84.50;;;;;;5010188;28;20496;-56
2022/06/13 01:40:56;;;;;;;2.53;1.80;;;15.20;84.80;;;;;;5018718;28;20471;-55
2022/06/13 01:43:31;;;;;;;4.47;2.77;;;15.10;84.60;;;;;;5020422;28;20480;-56
2022/06/13 01:46:07;;;;;;;6.53;2.60;;;14.90;85.20;;;;;;5016038;28;21020;-56
2022/06/13 01:48:39;;;;;;;2.67;1.50;;;14.90;85.60;;;;;;5008746;28;20486;-56
2022/06/13 01:51:14;;;;;;;3.63;1.70;;;14.80;85.70;;;;;;5030899;28;20487;-56
2022/06/13 01:53:47;;;;;;;3.20;2.40;;;14.90;86.20;;;;;;5010579;28;20973;-56
2022/06/13 01:56:16;;;;;;;6.53;3.27;;;14.90;86.90;;;;;;5007275;28;20479;-56
2022/06/13 01:58:46;;;;;;;5.87;2.37;;;14.90;86.80;;;;;;5017801;28;20480;-56
2022/06/13 02:01:17;;;;;;;3.10;1.93;;;15.00;85.70;;;;;;5023052;28;20852;-56
2022/06/13 02:03:48;;;;;;;3.90;2.40;;;15.00;85.40;;;;;;5019049;28;20484;-56
2022/06/13 02:06:19;;;;;;;3.03;1.90;;;15.00;85.20;;;;;;5013968;28;21016;-56
2022/06/13 02:08:50;;;;;;;2.77;1.93;;;14.90;85.40;;;;;;5026220;28;20481;-56
2022/06/13 02:11:22;;;;;;;3.63;1.47;;;14.80;85.10;;;;;;5012233;28;20980;-56
2022/06/13 02:13:53;;;;;;;2.80;1.97;;;14.70;85.60;;;;;;5020826;28;20496;-56
2022/06/13 02:16:25;;;;;;;3.30;1.73;;;14.70;85.40;;;;;;4995378;28;20488;-56
2022/06/13 02:18:58;;;;;;;6.27;2.43;;;14.40;86.50;;;;;;5016806;28;20485;-56
2022/06/13 02:21:30;;;;;;;5.20;2.40;;;14.30;87.00;;;;;;5019369;28;20487;-55
2022/06/13 02:24:00;;;;;;;5.53;2.70;;;14.40;87.20;;;;;;5017948;28;20977;-56
2022/06/13 02:26:32;;;;;;;4.30;2.77;;;14.40;86.80;;;;;;5009182;28;20537;-55
2022/06/13 02:29:04;;;;;;;2.40;2.20;;;14.30;86.60;;;;;;5016402;28;20495;-55
2022/06/13 02:31:38;;;;;;;4.00;2.53;;;14.20;86.50;;;;;;5019062;28;20489;-56
2022/06/13 02:34:09;;;;;;;9.53;2.80;;;14.00;86.70;;;;;;5009516;28;21008;-56
2022/06/13 02:36:41;;;;;;;4.50;3.20;;;14.00;87.50;;;;;;5004061;28;20472;-56
2022/06/13 02:39:14;;;;;;;2.43;2.17;;;13.80;88.00;;;;;;5010596;28;20829;-56
2022/06/13 02:41:50;;;;;;;2.90;2.23;;;13.80;88.00;;;;;;5018477;28;20488;-56
2022/06/13 02:44:24;;;;;;;3.50;2.30;;;13.60;87.60;;;;;;5020260;28;20491;-56
2022/06/13 02:46:57;;;;;;;4.00;2.67;;;13.60;88.60;;;;;;5020557;28;20484;-56
2022/06/13 02:49:28;;;;;;;8.07;2.97;;;13.50;89.00;;;;;;5019714;28;21027;-56
2022/06/13 02:52:02;;;;;;;3.03;2.17;;;13.40;89.40;;;;;;5018384;28;21308;-57
2022/06/13 02:54:35;;;;;;;3.10;2.90;;;13.50;88.90;;;;;;5019011;28;20519;-57
2022/06/13 02:57:27;;;;;;;2.30;1.93;;;13.40;88.30;;;;;;5019981;28;20545;-56
2022/06/13 03:00:04;;;;;;;5.07;2.17;;;13.30;88.60;;;;;;4997722;28;20486;-56
2022/06/13 03:02:41;;;;;;;4.40;4.00;;;13.40;88.50;;;;;;5032022;28;20487;-56
2022/06/13 03:05:14;;;;;;;3.80;2.00;;;13.40;87.90;;;;;;5015172;28;20495;-55
2022/06/13 03:07:50;;;;;;;2.47;2.27;;;13.30;88.10;;;;;;5017331;28;20874;-56
2022/06/13 03:10:21;;;;;;;3.60;2.00;;;13.20;88.80;;;;;;4996521;28;20483;-55
2022/06/13 03:12:58;;;;;;;3.30;2.13;;;13.20;89.80;;;;;;5017955;28;20929;-55
2022/06/13 03:15:31;;;;;;;2.77;2.43;;;12.90;90.30;;;;;;5003731;28;20885;-55
2022/06/13 03:18:04;;;;;;;3.53;2.07;;;13.00;90.40;;;;;;5011835;28;20475;-56
2022/06/13 03:20:40;;;;;;;4.43;4.03;;;12.90;89.60;;;;;;5009763;28;20964;-55
2022/06/13 03:23:10;;;;;;;6.40;1.90;;;12.80;90.20;;;;;;4995964;28;20493;-55
2022/06/13 03:25:43;;;;;;;4.53;3.90;;;12.70;90.30;;;;;;5007580;28;20510;-56
2022/06/13 03:28:16;;;;;;;5.50;2.17;;;12.60;90.40;;;;;;5006175;28;21067;-56
2022/06/13 03:30:46;;;;;;;2.30;1.90;;;12.60;90.30;;;;;;5004174;28;20483;-56
2022/06/13 03:36:07;;;;;;;2.67;2.30;;;12.80;89.70;;;;;;5005704;28;20495;-56
2022/06/13 03:38:38;;;;;;;3.67;3.37;;;12.80;90.00;;;;;;4995169;28;20481;-57
2022/06/13 03:41:07;;;;;;;2.23;2.03;;;12.70;90.20;;;;;;5021238;28;20878;-56
2022/06/13 03:43:39;;;;;;;5.27;3.97;;;12.80;90.20;;;;;;4972928;28;20503;-56
2022/06/13 03:46:09;;;;;;;3.47;2.67;;;12.80;90.00;;;;;;5026679;28;20484;-56
2022/06/13 03:48:43;;;;;;;4.00;3.60;;;12.90;89.10;;;;;;5017602;28;20859;-56
2022/06/13 03:51:16;;;;;;;2.60;2.27;;;12.90;89.00;;;;;;5018547;28;20479;-59
2022/06/13 03:53:47;;;;;;;8.70;2.43;;;13.00;88.80;;;;;;5014924;28;20479;-57
2022/06/13 03:56:19;;;;;;;6.37;3.30;;;12.90;89.30;;;;;;4997724;28;20485;-56
2022/06/13 03:58:51;;;;;;;2.80;2.10;;;12.80;89.20;;;;;;5010991;28;20491;-59
2022/06/13 04:01:22;;;;;;;5.90;2.70;;;12.80;89.80;;;;;;4991855;28;20487;-56
2022/06/13 04:03:51;;;;;;;3.90;2.37;;;12.60;90.00;;;;;;5007851;28;20507;-56
2022/06/13 04:06:33;;;;;;;2.77;2.47;;;12.60;90.20;;;;;;5015541;28;20478;-56
2022/06/13 04:09:01;;;;;;;3.93;1.83;;;12.60;90.00;;;;;;5018236;28;20471;-56
2022/06/13 04:11:39;;;;;;;5.33;3.40;;;12.60;90.20;;;;;;5018586;28;20475;-56
2022/06/13 04:14:19;;;;;;;7.20;2.30;;;12.50;90.40;;;;;;5014937;28;20468;-57
2022/06/13 04:16:56;;;;;;;5.40;2.53;;;12.60;90.20;;;;;;5018376;28;20475;-57
2022/06/13 04:19:39;;;;;;;3.17;2.87;;;12.60;90.00;;;;;;5023948;28;21355;-57
2022/06/13 04:22:13;;;;;;;3.20;2.10;;;12.60;90.20;;;;;;5018118;28;20562;-57
2022/06/13 04:24:56;;;;;;;3.03;2.70;;;12.80;90.60;;;;;;5009304;28;20491;-57
2022/06/13 04:27:26;;;;;;;4.40;3.13;;;12.80;90.80;;;;;;5013767;28;20482;-57
2022/06/13 04:30:01;;;;;;;3.20;2.60;;;12.90;90.70;;;;;;5018498;28;20529;-57
2022/06/13 04:32:34;;;;;;;9.93;4.47;;;12.90;90.80;;;;;;5005132;28;20582;-57
2022/06/13 04:35:04;;;;;;;3.00;2.60;;;12.90;91.10;;;;;;5018348;28;20486;-57
2022/06/13 04:37:33;;;;;;;11.03;3.83;;;13.00;91.20;;;;;;5017139;28;20493;-58
2022/06/13 04:40:05;;;;;;;3.77;2.50;;;13.00;91.40;;;;;;5017992;28;20482;-58
2022/06/13 04:42:36;;;;;;;4.97;4.03;;;13.00;91.40;;;;;;5015785;28;21015;-57
2022/06/13 04:45:08;;;;;;;5.30;2.83;;;13.10;91.50;;;;;;5016730;28;20482;-58
2022/06/13 04:47:37;;;;;;;4.57;3.80;;;13.20;91.80;;;;;;5018158;28;20999;-58
2022/06/13 04:50:06;;;;;;;4.13;2.30;;;13.30;91.90;;;;;;5017041;28;20491;-57
2022/06/13 04:52:36;;;;;;;4.90;4.07;;;13.30;91.90;;;;;;5017494;28;20531;-58
2022/06/13 04:55:06;;;;;;;4.00;3.00;;;;;;;;;;5018936;28;20485;-58
2022/06/13 04:57:34;;;;;;;6.73;4.17;;;13.40;91.90;;;;;;5005737;28;20476;-59
2022/06/13 05:00:01;;;;;;;2.97;2.40;;;13.40;92.20;;;;;;5017284;28;20468;-58
2022/06/13 05:02:38;;;;;;;8.10;4.07;;;13.40;92.50;;;;;;5017782;28;20485;-59
2022/06/13 05:05:23;;;;;;;5.83;2.70;;;13.50;92.90;;;;;;5018822;28;20905;-58
2022/06/13 05:07:50;;;;;;;4.07;3.10;;;13.60;92.70;;;;;;5005119;28;20527;-59
2022/06/13 05:10:20;;;;;;;2.83;2.40;;;13.70;92.70;;;;;;5017812;28;20842;-59
2022/06/13 05:12:47;;;;;;;4.23;2.33;;;14.00;92.40;;;;;;5019172;28;20475;-59
2022/06/13 05:15:18;;;;;;;3.07;2.73;;;14.10;92.50;;;;;;5017349;28;20521;-59
2022/06/13 05:18:14;;;;;;;6.73;3.10;;;14.40;92.30;;;;;;5016320;28;20492;-59
2022/06/13 05:20:51;;;;;;;7.93;3.57;;;14.40;92.60;;;;;;4982288;28;20483;-59
2022/06/13 05:23:49;;;;;;;3.90;2.67;;;14.60;91.90;;;;;;5018055;28;20490;-58
2022/06/13 05:26:15;;;;;;;7.43;3.70;;;14.70;92.60;;;;;;5018895;28;20489;-58
2022/06/13 05:28:42;;;;;;;3.10;2.80;;;14.80;93.10;;;;;;5017075;28;20491;-57
2022/06/13 05:31:12;;;;;;;5.40;2.60;;;14.90;93.40;;;;;;5017724;28;20925;-57
2022/06/13 05:33:42;;;;;;;6.47;3.60;;;15.10;93.00;;;;;;5014594;28;20483;-57
2022/06/13 05:36:14;;;;;;;5.37;2.50;;;15.30;92.80;;;;;;5025561;28;20867;-57
2022/06/13 05:38:44;;;;;;;3.90;3.60;;;15.30;93.20;;;;;;5016563;28;20507;-57
2022/06/13 05:41:11;;;;;;;10.50;3.70;;;15.50;93.40;;;;;;5021871;28;20482;-57
2022/06/13 05:43:37;;;;;;;4.70;3.67;;;15.60;93.90;;;;;;5019477;28;20503;-57
2022/06/13 05:46:05;;;;;;;4.40;2.97;;;15.80;93.60;;;;;;5022045;28;20506;-57
2022/06/13 05:48:32;;;;;;;7.43;5.07;;;15.90;93.30;;;;;;5020261;28;20476;-57
2022/06/13 05:50:59;;;;;;;5.20;4.23;;;16.10;92.70;;;;;;5020601;28;20483;-57
2022/06/13 05:53:28;;;;;;;7.43;3.83;;;16.40;92.30;;;;;;5018922;28;20538;-57
2022/06/13 05:55:58;;;;;;;8.77;4.40;;;16.50;92.20;;;;;;5021258;28;20890;-56
2022/06/13 05:58:25;;;;;;;4.20;3.77;;;16.70;91.10;;;;;;5016687;28;21048;-56
2022/06/13 06:00:57;;;;;;;12.03;4.30;;;17.10;91.10;;;;;;5014508;28;20499;-56
2022/06/13 06:03:23;;;;;;;10.83;4.13;;;17.30;90.90;;;;;;5014446;28;20579;-57
2022/06/13 06:05:50;;;;;;;5.57;3.87;;;17.50;91.00;;;;;;5021741;28;20484;-57
2022/06/13 06:08:19;;;;;;;12.13;3.97;;;17.70;91.10;;;;;;5021119;28;20464;-57
2022/06/13 06:10:50;;;;;;;5.43;4.13;;;17.70;90.50;;;;;;5019184;28;20488;-57
2022/06/13 06:13:17;;;;;;;7.73;4.10;;;17.90;89.70;;;;;;5018734;28;20477;-57
2022/06/13 06:15:45;;;;;;;4.40;3.73;;;18.00;89.00;;;;;;5010118;28;20961;-57
2022/06/13 06:18:13;;;;;;;5.97;3.40;;;18.30;89.10;;;;;;5033023;28;20484;-56
2022/06/13 06:20:40;;;;;;;8.50;3.90;;;18.40;88.70;;;;;;5019603;28;20480;-56
2022/06/13 06:23:09;;;;;;;4.07;3.00;;;18.60;88.20;;;;;;5020414;28;20468;-54
2022/06/13 06:25:36;;;;;;;8.23;4.90;;;18.90;86.70;;;;;;5019053;28;21029;-54
2022/06/13 06:28:05;;;;;;;3.80;2.83;;;18.90;84.10;;;;;;5020949;28;20481;-53
2022/06/13 06:30:32;;;;;;;6.87;3.70;;;19.00;84.20;;;;;;5018748;28;20949;-54
2022/06/13 06:33:00;;;;;;;13.63;4.40;;;19.10;83.70;;;;;;5021401;28;20481;-53
2022/06/13 06:35:29;;;;;;;3.83;3.40;;;19.20;82.80;;;;;;5020819;28;20978;-55
2022/06/13 06:37:59;;;;;;;9.33;2.80;;;19.30;82.80;;;;;;5019607;28;20477;-54
2022/06/13 06:40:27;;;;;;;6.13;3.93;;;19.40;83.00;;;;;;5019327;28;20473;-54
2022/06/13 06:42:54;;;;;;;6.57;2.87;;;19.60;81.00;;;;;;5019892;28;20484;-55
2022/06/13 06:45:23;;;;;;;3.43;2.13;;;19.70;80.30;;;;;;5023534;28;20481;-54
2022/06/13 06:47:50;;;;;;;7.30;3.50;;;19.90;79.90;;;;;;5020050;28;20774;-54
2022/06/13 06:50:19;;;;;;;6.67;3.20;;;19.90;79.50;;;;;;5013958;28;20491;-55
2022/06/13 06:52:45;;;;;;;9.53;3.00;;;20.10;79.30;;;;;;5030105;28;21305;-55
2022/06/13 07:00:46;;;;;;;13.07;3.03;;;20.60;78.90;;;;;;5015306;28;21078;-54
2022/06/13 07:03:13;;;;;;;6.40;2.73;;;20.70;77.70;;;;;;5019113;28;20484;-55
2022/06/13 07:05:40;;;;;;;5.20;3.70;;;20.90;78.90;;;;;;5019596;28;20496;-54
2022/06/13 07:08:07;;;;;;;5.90;3.63;;;21.10;78.70;;;;;;5018760;28;20494;-55
2022/06/13 07:10:34;;;;;;;4.23;3.00;;;21.30;78.30;;;;;;5018311;28;20784;-55
2022/06/13 07:13:01;;;;;;;5.33;2.30;;;21.50;77.80;;;;;;5020670;28;20852;-55
2022/06/13 07:15:28;;;;;;;4.53;3.10;;;21.70;75.60;;;;;;5010015;28;20488;-55
2022/06/13 07:17:57;;;;;;;5.17;2.30;;;22.00;75.00;;;;;;5021061;28;20482;-55
2022/06/13 07:20:24;;;;;;;6.70;3.00;;;22.20;75.10;;;;;;5018191;28;20508;-55
2022/06/13 07:22:54;;;;;;;6.53;2.43;;;22.20;75.40;;;;;;5017492;28;20479;-55
2022/06/13 07:25:23;;;;;;;5.20;2.67;;;22.30;75.10;;;;;;5017122;28;20565;-54
2022/06/13 07:27:50;;;;;;;4.97;2.97;;;22.50;74.80;;;;;;5023267;28;20507;-53
2022/06/13 07:30:20;;;;;;;5.53;2.60;;;22.50;72.80;;;;;;5013271;28;20484;-56
2022/06/13 07:32:47;;;;;;;2.70;2.23;;;22.60;72.20;;;;;;5012812;28;20992;-54
2022/06/13 07:35:19;;;;;;;6.17;2.57;;;22.80;71.30;;;;;;5019093;28;20488;-55
2022/06/13 07:40:31;;;;;;;7.70;3.70;;;22.80;71.60;;;;;;5007419;28;20714;-55
2022/06/13 07:43:02;;;;;;;3.83;2.73;;;23.10;72.20;;;;;;5019666;28;20527;-56
2022/06/13 07:45:32;;;;;;;6.73;2.77;;;23.10;72.30;;;;;;5018557;28;21037;-54
2022/06/13 07:47:59;;;;;;;5.73;2.53;;;23.40;72.90;;;;;;5019986;28;20519;-56
2022/06/13 07:50:28;;;;;;;6.53;3.50;;;23.40;72.60;;;;;;5018254;28;20953;-54
2022/06/13 07:52:55;;;;;;;5.00;2.90;;;23.60;71.50;;;;;;5014675;28;21034;-54
2022/06/13 07:55:25;;;;;;;3.77;2.40;;;23.70;72.10;;;;;;5018598;28;20982;-54
2022/06/13 07:57:52;;;;;;;7.40;4.13;;;23.90;71.90;;;;;;5019570;28;20887;-55
2022/06/13 08:00:22;;;;;;;3.90;2.30;;;24.00;72.00;;;;;;5013502;28;20832;-53
2022/06/13 08:02:50;;;;;;;8.37;2.37;;;24.10;68.80;;;;;;5018220;28;20531;-55
2022/06/13 08:05:17;;;;;;;5.23;2.50;;;24.10;69.30;;;;;;5017788;28;20488;-55
2022/06/13 08:07:45;;;;;;;3.03;1.90;;;23.90;65.00;;;;;;5019047;28;20484;-55
2022/06/13 08:10:12;;;;;;;9.20;3.07;;;23.80;66.60;;;;;;5018318;28;20489;-56
2022/06/13 08:12:39;;;;;;;3.77;1.97;;;23.90;69.20;;;;;;5017696;28;21154;-56
2022/06/13 08:15:07;;;;;;;6.27;2.60;;;23.70;66.40;;;;;;5017878;28;20488;-56
2022/06/13 08:17:34;;;;;;;4.80;3.00;;;23.70;67.00;;;;;;5017474;28;20661;-57
2022/06/13 08:20:00;;;;;;;2.30;1.70;;;23.70;65.60;;;;;;5017889;28;20487;-54
2022/06/13 08:22:27;;;;;;;4.10;2.50;;;24.00;66.20;;;;;;5017023;28;20801;-55
2022/06/13 08:24:55;;;;;;;4.13;2.30;;;24.10;65.30;;;;;;5018426;28;20476;-56
2022/06/13 08:27:22;;;;;;;6.43;2.30;;;24.10;64.90;;;;;;5018182;28;20477;-54
2022/06/13 08:29:48;;;;;;;3.03;1.60;;;24.00;62.70;;;;;;5017642;28;20495;-53
2022/06/13 08:32:15;;;;;;;3.30;1.80;;;23.90;60.60;;;;;;5018287;28;20519;-53
2022/06/13 08:34:42;;;;;;;7.00;2.30;;;23.80;62.30;;;;;;5018950;28;20472;-55
2022/06/13 08:37:09;;;;;;;5.87;2.13;;;23.80;63.00;;;;;;5019769;28;20560;-53
2022/06/13 08:39:36;;;;;;;4.53;2.70;;;23.90;63.30;;;;;;5011964;28;20491;-54
2022/06/13 08:42:11;;;;;;;5.87;2.10;;;24.00;62.80;;;;;;5017872;28;20484;-55
2022/06/13 08:44:52;;;;;;;3.73;2.27;;;24.00;63.30;;;;;;5005479;28;20551;-56
2022/06/13 08:47:27;;;;;;;4.00;2.17;;;24.40;61.60;;;;;;5021759;28;20487;-55
2022/06/13 08:50:05;;;;;;;6.47;1.73;;;24.40;59.10;;;;;;5017786;28;20480;-54
2022/06/13 08:52:36;;;;;;;5.23;2.77;;;24.30;59.90;;;;;;5008941;28;20483;-53
2022/06/13 08:55:10;;;;;;;4.40;1.73;;;24.50;62.40;;;;;;5005451;28;20484;-54
2022/06/13 08:57:44;;;;;;;3.13;2.70;;;24.60;64.30;;;;;;5016506;28;20480;-55
2022/06/13 09:00:15;;;;;;;2.10;1.60;;;25.00;62.50;;;;;;5014051;28;20487;-56
2022/06/13 09:02:47;;;;;;;3.30;2.10;;;25.10;63.20;;;;;;5018615;28;20741;-53
2022/06/13 09:05:20;;;;;;;2.20;1.57;;;25.00;62.30;;;;;;5016936;28;20472;-53
2022/06/13 09:07:52;;;;;;;3.70;1.73;;;24.80;60.10;;;;;;5018737;28;20970;-54
2022/06/13 09:10:26;;;;;;;4.93;2.70;;;25.20;64.20;;;;;;5017245;28;20489;-55
2022/06/13 09:12:59;;;;;;;5.80;1.93;;;25.30;61.90;;;;;;5009164;28;20605;-53
2022/06/13 09:15:32;;;;;;;6.67;2.20;;;25.40;61.80;;;;;;5025292;28;20484;-56
2022/06/13 09:18:04;;;;;;;5.00;2.00;;;25.50;62.00;;;;;;5021414;28;20486;-55
2022/06/13 09:20:36;;;;;;;4.33;2.30;;;25.60;61.50;;;;;;5020769;28;20888;-54
2022/06/13 09:23:10;;;;;;;6.07;2.17;;;25.90;59.70;;;;;;5022600;28;21219;-55
2022/06/13 09:25:42;;;;;;;6.93;2.40;;;25.90;61.00;;;;;;5022865;28;20595;-55
2022/06/13 09:28:15;;;;;;;4.77;2.40;;;26.10;58.50;;;;;;5018121;28;20473;-55
2022/06/13 09:30:47;;;;;;;2.37;2.10;;;26.20;60.70;;;;;;5007547;28;20515;-54
2022/06/13 09:33:19;;;;;;;2.80;1.60;;;26.30;61.30;;;;;;5022262;28;20476;-54
2022/06/13 09:35:52;;;;;;;5.47;2.10;;;26.30;60.50;;;;;;5010316;28;20997;-54
2022/06/13 09:38:22;;;;;;;6.70;2.20;;;26.30;60.80;;;;;;5022601;28;20476;-55
2022/06/13 09:40:59;;;;;;;5.00;2.07;;;26.10;58.40;;;;;;5020798;28;20483;-56
2022/06/13 09:43:39;;;;;;;3.10;2.23;;;26.00;60.30;;;;;;5018679;28;20472;-54
2022/06/13 09:46:13;;;;;;;2.90;2.30;;;25.80;58.70;;;;;;5017230;28;20555;-56
2022/06/13 09:48:51;;;;;;;3.30;2.30;;;25.70;58.00;;;;;;5020715;28;20501;-54
2022/06/13 09:51:29;;;;;;;3.50;1.93;;;25.90;63.40;;;;;;5017776;28;20835;-55
2022/06/13 09:54:04;;;;;;;4.03;2.13;;;26.10;59.60;;;;;;5021385;28;20491;-54
2022/06/13 09:56:37;;;;;;;3.40;2.73;;;26.50;59.30;;;;;;5019922;28;20476;-55
2022/06/13 09:59:17;;;;;;;7.00;2.93;;;26.60;59.70;;;;;;5019477;28;20488;-53
2022/06/13 10:01:48;;;;;;;7.73;2.47;;;26.40;57.90;;;;;;5017027;28;20480;-53
2022/06/13 10:04:21;;;;;;;10.13;2.33;;;26.30;59.40;;;;;;5006916;28;20851;-53
2022/06/13 10:06:54;;;;;;;4.60;3.10;;;26.00;58.20;;;;;;5008993;28;20572;-55
2022/06/13 10:09:32;;;;;;;4.53;2.40;;;25.80;57.30;;;;;;5019484;28;20837;-55
2022/06/13 10:12:04;;;;;;;4.30;2.50;;;25.80;59.50;;;;;;5021199;28;20488;-55
2022/06/13 10:14:57;;;;;;;6.93;2.00;;;25.80;61.10;;;;;;5007966;28;21757;-54
2022/06/13 10:17:39;;;;;;;2.77;1.60;;;25.90;60.90;;;;;;5026686;28;20903;-55
2022/06/13 10:20:13;;;;;;;3.73;2.10;;;26.10;60.60;;;;;;5020427;28;20493;-54
2022/06/13 10:22:48;;;;;;;3.80;2.30;;;26.00;58.60;;;;;;5018571;28;21093;-53
2022/06/13 10:25:31;;;;;;;3.63;1.90;;;26.00;58.40;;;;;;5015665;28;20809;-54
2022/06/13 10:28:12;;;;;;;3.27;1.90;;;26.00;58.30;;;;;;5009390;28;20479;-52
2022/06/13 10:30:51;;;;;;;2.83;2.60;;;26.00;59.20;;;;;;5007465;28;20500;-53
2022/06/13 10:33:29;;;;;;;6.57;2.80;;;26.30;60.00;;;;;;5026626;28;21398;-52
2022/06/13 10:36:04;;;;;;;3.13;2.57;;;26.30;60.30;;;;;;5013666;28;20563;-53
2022/06/13 10:38:46;;;;;;;5.17;2.60;;;26.50;60.90;;;;;;5016335;28;20484;-54
2022/06/13 10:41:13;;;;;;;3.37;2.57;;;26.50;59.40;;;;;;5024598;28;20966;-53
2022/06/13 10:43:42;;;;;;;6.40;2.97;;;26.60;59.60;;;;;;5017711;28;20489;-53
2022/06/13 10:46:13;;;;;;;4.80;2.30;;;26.70;60.20;;;;;;5020806;28;20485;-52
2022/06/13 10:48:44;;;;;;;3.33;2.50;;;26.90;58.70;;;;;;5019178;28;20480;-53
2022/06/13 10:51:11;;;;;;;9.73;2.80;;;27.10;59.60;;;;;;5018905;28;20485;-53
2022/06/13 10:53:43;;;;;;;3.87;2.40;;;27.00;58.20;;;;;;5020222;28;20855;-54
2022/06/13 10:56:14;;;;;;;3.53;1.50;;;27.10;60.30;;;;;;5020399;28;20508;-53
2022/06/13 10:58:45;;;;;;;4.60;2.27;;;27.30;59.50;;;;;;5006710;28;21039;-53
2022/06/13 11:01:14;;;;;;;4.83;2.10;;;27.40;59.20;;;;;;5033565;28;20501;-54
2022/06/13 11:03:44;;;;;;;3.63;2.00;;;27.30;57.70;;;;;;5016827;28;20464;-54
2022/06/13 11:06:19;;;;;;;4.90;2.60;;;27.00;58.40;;;;;;5018730;28;20463;-54
2022/06/13 11:08:46;;;;;;;6.70;2.27;;;27.00;58.10;;;;;;5018608;28;20488;-55
2022/06/13 11:11:15;;;;;;;4.33;1.93;;;26.80;58.90;;;;;;5019731;28;21023;-55
2022/06/13 11:13:44;;;;;;;3.40;2.27;;;26.30;57.10;;;;;;5015457;28;20853;-55
2022/06/13 11:24:50;;;;;;;5.30;2.33;;;26.50;58.40;;;;;;5019422;28;21020;-54
2022/06/13 11:30:40;;;;;;;7.20;2.43;;;26.30;58.40;;;;;;5021066;28;20949;-54
2022/06/13 11:33:16;;;;;;;4.30;1.73;;;26.40;59.30;;;;;;5018766;28;20480;-53
2022/06/13 11:35:45;;;;;;;2.60;2.27;;;26.60;57.30;;;;;;5016281;28;21285;-52
2022/06/13 11:38:19;;;;;;;3.10;2.57;;;26.70;59.20;;;;;;5017798;28;20495;-52
2022/06/13 11:40:48;;;;;;;3.20;2.30;;;26.60;57.60;;;;;;5018066;28;20963;-54
2022/06/13 11:43:20;;;;;;;3.90;2.40;;;26.40;57.80;;;;;;5017098;28;21035;-53
2022/06/13 11:45:55;;;;;;;3.57;2.03;;;26.30;57.20;;;;;;5018781;28;20463;-52
2022/06/13 11:48:24;;;;;;;3.37;2.20;;;26.00;58.40;;;;;;5019524;28;21135;-52
2022/06/13 11:50:54;;;;;;;3.10;2.60;;;;;;;;;;5014768;28;20488;-52
2022/06/13 11:53:38;;;;;;;4.50;2.30;;;25.80;56.80;;;;;;5017908;28;20496;-53
2022/06/13 11:56:09;;;;;;;3.60;2.60;;;25.80;58.10;;;;;;5008655;28;20476;-53
2022/06/13 11:58:40;;;;;;;4.23;2.47;;;25.70;56.70;;;;;;5008424;28;20451;-54
2022/06/13 12:01:17;;;;;;;5.07;2.43;;;25.70;58.20;;;;;;5015070;28;21066;-54
2022/06/13 12:03:49;;;;;;;4.23;2.30;;;25.50;58.60;;;;;;5015876;28;20463;-53
2022/06/13 12:06:18;;;;;;;5.97;2.67;;;25.40;59.60;;;;;;5011046;28;20485;-54
2022/06/13 12:08:50;;;;;;;3.30;2.40;;;25.30;58.60;;;;;;5010665;28;20464;-53
2022/06/13 12:11:24;;;;;;;2.97;2.67;;;25.30;59.80;;;;;;5002415;28;20603;-53
2022/06/13 12:13:52;;;;;;;5.20;2.73;;;25.30;59.50;;;;;;5007375;28;20555;-53
2022/06/13 12:16:33;;;;;;;9.53;5.50;;;25.30;60.00;;;;;;5007083;28;20816;-53
2022/06/13 12:19:17;;;;;;;3.70;2.63;;;25.60;59.00;;;;;;5008446;28;20525;-53
2022/06/13 12:21:49;;;;;;;4.50;2.83;;;25.80;58.20;;;;;;5005714;28;21459;-53
2022/06/13 12:24:23;;;;;;;4.80;2.77;;;25.80;59.90;;;;;;5014941;28;20557;-53
2022/06/13 12:26:57;;;;;;;4.10;2.57;;;25.90;58.80;;;;;;5008459;28;20480;-54
2022/06/13 12:29:46;;;;;;;5.30;2.40;;;25.80;57.70;;;;;;5007382;28;20538;-54
2022/06/13 12:32:18;;;;;;;8.03;2.80;;;25.80;59.10;;;;;;5006361;28;20473;-53
2022/06/13 12:34:57;;;;;;;5.70;2.67;;;25.60;58.00;;;;;;5012164;28;21041;-53
2022/06/13 12:37:34;;;;;;;6.90;2.60;;;25.30;57.80;;;;;;5007876;28;20487;-54
2022/06/13 12:40:16;;;;;;;6.47;2.70;;;25.20;58.60;;;;;;5006575;28;20909;-54
2022/06/13 12:43:06;;;;;;;4.27;3.00;;;25.30;58.80;;;;;;5002699;28;20480;-53
2022/06/13 12:45:50;;;;;;;3.83;2.50;;;25.30;58.40;;;;;;5007038;28;20500;-52
2022/06/13 12:48:34;;;;;;;8.33;2.80;;;25.70;63.60;;;;;;5010264;28;20503;-53
2022/06/13 12:51:31;;;;;;;6.13;3.20;;;25.90;60.90;;;;;;5011297;28;20587;-54
2022/06/13 12:54:28;;;;;;;6.87;3.53;;;25.90;59.50;;;;;;4990520;28;20587;-53
2022/06/13 12:57:05;;;;;;;7.00;2.70;;;25.90;57.80;;;;;;5012395;28;21013;-53
2022/06/13 12:59:57;;;;;;;6.17;2.90;;;25.60;57.00;;;;;;5006717;28;20826;-53
2022/06/13 13:02:33;;;;;;;6.80;2.07;;;25.50;58.30;;;;;;5008521;28;21026;-52
2022/06/13 13:05:17;;;;;;;6.10;3.00;;;25.80;61.60;;;;;;5007568;28;20480;-52
2022/06/13 13:07:59;;;;;;;5.43;2.53;;;25.80;58.50;;;;;;5007527;28;20893;-53
2022/06/13 13:10:43;;;;;;;3.63;3.27;;;26.00;56.60;;;;;;4997841;28;20495;-53
2022/06/13 13:13:33;;;;;;;4.97;3.00;;;25.80;55.40;;;;;;5008892;28;20519;-54
2022/06/13 13:16:06;;;;;;;2.60;2.40;;;25.70;59.30;;;;;;5006016;28;20484;-55
2022/06/13 13:18:48;;;;;;;5.20;2.30;;;25.70;58.10;;;;;;5006683;28;20836;-53
2022/06/13 13:21:21;;;;;;;6.03;2.37;;;25.80;59.40;;;;;;5007872;28;20973;-53
2022/06/13 13:24:00;;;;;;;5.50;2.93;;;26.00;58.50;;;;;;5008161;28;21079;-53
2022/06/13 13:26:35;;;;;;;3.07;2.60;;;26.10;56.00;;;;;;5008058;28;20496;-54
2022/06/13 13:29:13;;;;;;;5.47;3.07;;;26.10;58.10;;;;;;5007919;28;20522;-56
2022/06/13 13:31:45;;;;;;;7.23;3.20;;;26.10;57.60;;;;;;5006066;28;20476;-55
2022/06/13 13:34:38;;;;;;;6.70;3.83;;;26.10;56.00;;;;;;5005831;28;20480;-54
2022/06/13 13:37:20;;;;;;;6.43;3.37;;;25.90;58.00;;;;;;5004777;28;20476;-54
2022/06/13 13:39:53;;;;;;;5.30;2.77;;;26.10;57.80;;;;;;5006413;28;20492;-54
2022/06/13 13:42:29;;;;;;;3.30;3.00;;;26.20;56.10;;;;;;4997171;28;20580;-52